Cameron Park, New South Wales

2:40 AM AEDT on February 12, 2016 (GMT +1100)
INEWSOUT101 | | Change Station
CLOSE
Current Station
Personal Weather Station
Location: Edgeworth, NEW SOUTH WALES
Elevation: 95 ft
Nearby Weather Stations

Elev 95 ft 32.92 °S, 151.62 °E | Updated 7 seconds ago

Clear
Clear
70.2 °F
Feels Like 71 °F
N
0.0
Wind Variable Wind from WSW
Gusts 0.0 mph

Today
High -- | Low -- °F
--% Chance of Precip.
Yesterday
High -- | Low -- °F
Precip. -- in
Pressure 29.95 in
Visibility 6.2 miles
Clouds
Heat Index 71 °F
Dew Point 64 °F
Humidity 81%
Rainfall 0.00 in
Snow Depth Not available.
6:26 AM 7:48 PM
Waxing Crescent, 12% visible
METAR YWLM 111530Z AUTO 05005KT 9999 // NCD 21/19 Q1014
Pressure 29.95 in
Visibility 6.2 miles
Clouds
Heat Index 71 °F
Dew Point 64 °F
Humidity 81%
Rainfall 0.00 in
Snow Depth Not available.
6:26 AM 7:48 PM
Waxing Crescent, 12% visible
METAR YWLM 111530Z AUTO 05005KT 9999 // NCD 21/19 Q1014

10-Day Weather Forecast

Almanac

Astronomy

Feb. 12, 2016 Rise Set
Actual Time
Civil Twilight
Nautical Twilight
Astronomical Twilight
Moon
Length of Visible Light
Length of Day
Tomorrow will be .
, % of the Moon is Illuminated

Today's Extremes

Country Highs Country Lows

Community

WunderPhotos

Upload Photos

1,892,078 photos uploaded!

WunderBlog® & News

Nearby

Air Quality

  Air Quality AQ Index Pollutant
Not available.

Snow Depth

Station Depth Elevation

Earthquake Activity

City Distance Mag. Time & Date
Minimum magnitude displayed is 2.5.

Coastal Water Temperatures

Place Temperature

Stations

Nearby Weather Stations

Station Location Temp. Windchill Dew Point Humidity Wind Precip. Elev Updated Type